NCAR-RAP Real-Time Weather Data

Output produced by METARs form (24 July 2016  20:17 UTC)
found at http://weather.rap.ucar.edu/surface/
 
Conditions at: KLOU observed 24 July 2016  19:53 UTC
Temperature: 33.9°C (93°F)
Dewpoint: 22.8°C (73°F) [RH = 52%]
Pressure (altimeter): 29.98 inches Hg (1015.3 mb)
[Sea-level pressure: 1014.6 mb]
Winds: from the SW (230 degrees) at 7 MPH (6 knots; 3.1 m/s)
Visibility: 10 or more miles (16+ km)
Ceiling: at least 12,000 feet AGL
Clouds: few clouds at 4400 feet AGL
scattered clouds at 7000 feet AGL
Present Weather: automated observation with no human augmentation;
there may or may not be significant weather present at this time
KLOU 241953Z AUTO 23006KT 10SM FEW044 SCT070 34/23 A2998 RMK AO2 SLP146 T03390228